EmailTwitter


Observations de surface / France / LFBO (07630)

Régions: Québec | Canada | États-Unis | Europe | France | UK | Ailleurs
Station
Affichage
Infos & localisation pour LFBO (07630) | Aide pour décoder les METARs

Observations prises le 2018-06-21 à 06H00 UTC à TOULOUSE/BLAGNAC, FR (LFBO)

Etat du ciel: couvert.

Température: 20.0 Celsius

Point de rosée: 19.0 Celsius

Humidité relative: 94%

Indice Humidex: 27.

Vents: Ouest à 17 km/h ou 9 noeuds.

Pression au niveau moyen de la mer: 101.90 kilopascals.

Visibilité horizontale: 4.35 milles terrestres ou 6.96 kilomètres.

Hauteur du plafond: 152 mètres ( 500 pieds ).

Observation METAR:

LFBO 210600Z AUTO 28009KT 7000 OVC005 20/19 Q1019 NOSIG=